Armstrong Mills, Ohio
Current Conditions -  °F | °C
As of 7:53 PM on Tuesday 21 Oct 2014 (Local Time) from KHLG Reporting Station
Overcast Overcast  
Wind Chill: 43°   Ceiling: 1300
Heat Index: 47°   Visibility: 10mi
Dew Point: 43°   Wind: 8mph
Humidity: 86%   Direction: 300°WNW
Pressure: 30"   Gusts: NA
Location:  39.9375°N, 80.8976°W
Report Text: KHLG 212353Z 30007KT 10SM OVC013 08/06 A3000 RMK AO2 SLP166 60013 T00830061 10111 20083 53010
Loading
Personal Weather Stations






























Interactive Weather Map
Tropical Storm Tracking
New forecast layout! Learn more

10-Day Weather Forecast

Advertisements
Track Severe Weather on mobile